createdAt,value
2023-03-26T00:01:39.856Z,8.08
2023-03-26T00:04:07.076Z,8.06
2023-03-26T00:06:38.402Z,8.04
2023-03-26T00:09:06.883Z,8.03
2023-03-26T00:11:34.232Z,8.02
2023-03-26T00:14:02.127Z,8.02
2023-03-26T00:16:30.672Z,8.03
2023-03-26T00:18:58.193Z,8.04
2023-03-26T00:21:27.347Z,8.04
2023-03-26T00:23:59.182Z,8.01
2023-03-26T00:26:30.699Z,7.98
2023-03-26T00:28:59.588Z,7.94
2023-03-26T00:31:26.884Z,7.90
2023-03-26T00:33:55.010Z,7.87
2023-03-26T00:36:22.683Z,7.83
2023-03-26T00:38:52.338Z,7.82
2023-03-26T00:41:24.938Z,7.80
2023-03-26T00:43:55.697Z,7.77
2023-03-26T00:46:23.060Z,7.74
2023-03-26T00:48:50.244Z,7.72
2023-03-26T00:51:18.601Z,7.71
2023-03-26T00:53:46.884Z,7.70
2023-03-26T00:56:14.049Z,7.68
2023-03-26T00:58:41.601Z,7.66
2023-03-26T01:01:10.467Z,7.63
2023-03-26T01:03:38.071Z,7.61
2023-03-26T01:06:09.528Z,7.59
2023-03-26T01:08:41.230Z,7.58
2023-03-26T01:11:14.251Z,7.57
2023-03-26T01:13:46.080Z,7.55
2023-03-26T01:16:25.831Z,7.53
2023-03-26T01:18:53.513Z,7.49
2023-03-26T01:21:22.701Z,7.47
2023-03-26T01:23:59.205Z,7.45
2023-03-26T01:26:35.574Z,7.41
2023-03-26T01:29:03.967Z,7.37
2023-03-26T01:31:36.523Z,7.31
2023-03-26T01:34:06.499Z,7.27
2023-03-26T01:36:44.662Z,7.22
2023-03-26T01:39:18.097Z,7.16
2023-03-26T01:41:46.980Z,7.13
2023-03-26T01:44:13.899Z,7.09
2023-03-26T01:46:41.922Z,7.06
2023-03-26T01:49:14.876Z,7.03
2023-03-26T01:51:42.434Z,7.00
2023-03-26T01:54:18.194Z,6.98
2023-03-26T01:56:47.928Z,6.94
2023-03-26T01:59:26.815Z,6.91
2023-03-26T02:02:00.613Z,6.86
2023-03-26T02:04:45.350Z,6.82
2023-03-26T02:07:17.555Z,6.79
2023-03-26T02:09:50.128Z,6.75
2023-03-26T02:12:17.384Z,6.72
2023-03-26T02:14:45.562Z,6.70
2023-03-26T02:17:12.714Z,6.67
2023-03-26T02:19:42.736Z,6.68
2023-03-26T02:22:16.173Z,6.69
2023-03-26T02:24:44.461Z,6.67
2023-03-26T02:27:11.873Z,6.66
2023-03-26T02:29:40.220Z,6.68
2023-03-26T02:32:12.514Z,6.69
2023-03-26T02:34:39.955Z,6.70
2023-03-26T02:37:06.936Z,6.71
2023-03-26T02:39:35.022Z,6.73
2023-03-26T02:42:07.338Z,6.74
2023-03-26T02:44:39.732Z,6.74
2023-03-26T02:47:29.159Z,6.71
2023-03-26T02:50:18.901Z,6.71
2023-03-26T02:53:02.799Z,6.72
2023-03-26T02:55:30.713Z,6.74
2023-03-26T02:58:00.089Z,6.76
2023-03-26T03:00:35.470Z,6.75
2023-03-26T03:03:23.844Z,6.73
2023-03-26T03:05:59.555Z,6.73
2023-03-26T03:08:33.983Z,6.75
2023-03-26T03:11:11.360Z,6.76
2023-03-26T03:13:44.246Z,6.77
2023-03-26T03:16:11.635Z,6.78
2023-03-26T03:18:38.656Z,6.77
2023-03-26T03:21:06.843Z,6.77
2023-03-26T03:23:33.893Z,6.76
2023-03-26T03:26:21.109Z,6.75
2023-03-26T03:28:52.160Z,6.71
2023-03-26T03:31:19.144Z,6.69
2023-03-26T03:33:46.105Z,6.66
2023-03-26T03:36:20.983Z,6.64
2023-03-26T03:38:54.715Z,6.55
2023-03-26T03:41:22.279Z,6.51
2023-03-26T03:43:49.613Z,6.47
2023-03-26T03:46:20.698Z,6.44
2023-03-26T03:48:49.463Z,6.39
2023-03-26T03:51:23.132Z,6.36
2023-03-26T03:53:57.065Z,6.37
2023-03-26T03:56:49.834Z,6.37
2023-03-26T03:59:20.336Z,6.37
2023-03-26T04:01:48.311Z,6.39
2023-03-26T04:04:24.204Z,6.40
2023-03-26T04:07:05.644Z,6.41
2023-03-26T04:09:55.860Z,6.44
2023-03-26T04:12:23.185Z,6.47
2023-03-26T04:15:00.095Z,6.49
2023-03-26T04:17:27.062Z,6.51
2023-03-26T04:19:55.496Z,6.52
2023-03-26T04:22:35.884Z,6.54
2023-03-26T04:25:05.120Z,6.54
2023-03-26T04:27:41.083Z,6.55
2023-03-26T04:30:20.059Z,6.55
2023-03-26T04:32:51.488Z,6.55
2023-03-26T04:35:19.080Z,6.55
2023-03-26T04:37:52.373Z,6.56
2023-03-26T04:40:24.416Z,6.56
2023-03-26T04:43:12.450Z,6.56
2023-03-26T04:46:04.996Z,6.54
2023-03-26T04:48:38.282Z,6.48
2023-03-26T04:51:09.427Z,6.42
2023-03-26T04:53:36.681Z,6.35
2023-03-26T04:56:28.207Z,6.29
2023-03-26T04:59:14.937Z,6.22
2023-03-26T05:01:45.343Z,6.21
2023-03-26T05:04:13.465Z,6.21
2023-03-26T05:06:41.286Z,6.21
2023-03-26T05:09:16.203Z,6.22
2023-03-26T05:12:12.323Z,6.25
2023-03-26T05:14:52.675Z,6.27
2023-03-26T05:17:30.558Z,6.30
2023-03-26T05:19:57.629Z,6.32
2023-03-26T05:22:25.396Z,6.35
2023-03-26T05:25:17.010Z,6.39
2023-03-26T05:27:44.788Z,6.44
2023-03-26T05:30:13.948Z,6.46
2023-03-26T05:32:43.707Z,6.50
2023-03-26T05:35:12.282Z,6.53
2023-03-26T05:37:39.455Z,6.54
2023-03-26T05:40:11.227Z,6.55
2023-03-26T05:42:45.704Z,6.56
2023-03-26T05:45:41.761Z,6.56
2023-03-26T05:48:25.379Z,6.58
2023-03-26T05:50:54.594Z,6.61
2023-03-26T05:53:22.749Z,6.59
2023-03-26T05:56:10.376Z,6.56
2023-03-26T05:58:56.669Z,6.57
2023-03-26T06:01:44.603Z,6.60
2023-03-26T06:04:31.571Z,6.62
2023-03-26T06:07:22.185Z,6.67
2023-03-26T06:10:10.324Z,6.74
2023-03-26T06:12:37.279Z,6.79
2023-03-26T06:15:05.773Z,6.76
2023-03-26T06:17:53.623Z,6.75
2023-03-26T06:20:35.792Z,6.70
2023-03-26T06:23:08.871Z,6.67
2023-03-26T06:26:01.717Z,6.68
2023-03-26T06:28:41.154Z,6.69
2023-03-26T06:31:28.285Z,6.66
2023-03-26T06:34:11.997Z,6.66
2023-03-26T06:36:38.955Z,6.66
2023-03-26T06:39:07.850Z,6.67
2023-03-26T06:41:37.351Z,6.74
2023-03-26T06:44:24.720Z,6.88
2023-03-26T06:47:26.738Z,7.00
2023-03-26T06:50:12.199Z,7.08
2023-03-26T06:52:57.417Z,7.13
2023-03-26T06:55:35.518Z,7.16
2023-03-26T06:58:21.449Z,7.21
2023-03-26T07:01:07.158Z,7.29
2023-03-26T07:03:52.830Z,7.38
2023-03-26T07:06:38.582Z,7.42
2023-03-26T07:09:25.894Z,7.35
2023-03-26T07:12:11.573Z,7.42
2023-03-26T07:15:13.833Z,7.47
2023-03-26T07:18:04.239Z,7.57
2023-03-26T07:20:34.443Z,7.69
2023-03-26T07:23:01.902Z,7.78
2023-03-26T07:25:53.318Z,7.87
2023-03-26T07:29:05.119Z,7.93
2023-03-26T07:32:09.121Z,7.98
2023-03-26T07:34:54.154Z,8.11
2023-03-26T07:37:58.960Z,8.22
2023-03-26T07:41:03.287Z,8.29
2023-03-26T07:44:07.668Z,8.26
2023-03-26T07:47:14.319Z,8.20
2023-03-26T07:49:58.886Z,8.19
2023-03-26T07:52:51.410Z,8.20
2023-03-26T07:55:53.864Z,8.13
2023-03-26T07:58:57.962Z,8.07
2023-03-26T08:01:47.836Z,8.05
2023-03-26T08:04:40.828Z,8.04
2023-03-26T08:07:52.668Z,8.08
2023-03-26T08:10:31.181Z,8.15
2023-03-26T08:13:22.185Z,8.28
2023-03-26T08:15:53.054Z,8.43
2023-03-26T08:18:20.059Z,8.56
2023-03-26T08:20:53.098Z,8.75
2023-03-26T08:23:27.405Z,8.99
2023-03-26T08:26:03.832Z,9.10
2023-03-26T08:28:45.522Z,9.23
2023-03-26T08:31:13.220Z,9.41
2023-03-26T08:33:40.444Z,9.49
2023-03-26T08:36:09.166Z,9.68
2023-03-26T08:38:36.094Z,9.79
2023-03-26T08:41:12.143Z,9.76
2023-03-26T08:43:51.576Z,9.72
2023-03-26T08:46:25.526Z,9.67
2023-03-26T08:49:01.060Z,9.76
2023-03-26T08:51:27.896Z,9.70
2023-03-26T08:53:54.806Z,9.66
2023-03-26T08:56:40.779Z,9.71
2023-03-26T08:59:16.402Z,9.88
2023-03-26T09:01:45.017Z,10.01
2023-03-26T09:04:21.076Z,10.13
2023-03-26T09:06:50.768Z,10.31
2023-03-26T09:09:36.391Z,10.45
2023-03-26T09:12:23.310Z,10.99
2023-03-26T09:14:57.380Z,11.59
2023-03-26T09:17:36.216Z,11.88
2023-03-26T09:20:24.523Z,12.02
2023-03-26T09:23:09.609Z,12.16
2023-03-26T09:25:41.015Z,12.46
2023-03-26T09:28:26.298Z,13.18
2023-03-26T09:30:53.511Z,14.43
2023-03-26T09:33:39.057Z,15.54
2023-03-26T09:36:21.170Z,16.36
2023-03-26T09:39:06.876Z,16.11
2023-03-26T09:41:58.874Z,15.85
2023-03-26T09:44:42.520Z,15.64
2023-03-26T09:47:19.234Z,15.33
2023-03-26T09:49:46.088Z,15.16
2023-03-26T09:52:22.590Z,15.14
2023-03-26T09:54:58.783Z,15.27
2023-03-26T09:57:39.221Z,15.08
2023-03-26T10:00:06.932Z,14.85
2023-03-26T10:02:46.719Z,14.56
2023-03-26T10:05:27.446Z,14.93
2023-03-26T10:08:19.773Z,14.98
2023-03-26T10:10:52.827Z,14.87
2023-03-26T10:13:22.835Z,14.78
2023-03-26T10:15:52.483Z,14.80
2023-03-26T10:18:27.938Z,14.85
2023-03-26T10:21:01.204Z,15.12
2023-03-26T10:23:32.174Z,15.74
2023-03-26T10:26:08.283Z,16.28
2023-03-26T10:28:35.811Z,16.30
2023-03-26T10:31:14.737Z,16.19
2023-03-26T10:33:51.717Z,15.90
2023-03-26T10:36:18.514Z,15.79
2023-03-26T10:38:57.484Z,15.77
2023-03-26T10:41:45.599Z,15.59
2023-03-26T10:44:31.051Z,15.68
2023-03-26T10:47:10.044Z,15.57
2023-03-26T10:49:39.963Z,15.25
2023-03-26T10:52:15.460Z,15.15
2023-03-26T10:54:48.768Z,15.02
2023-03-26T10:57:23.926Z,14.92
2023-03-26T10:59:53.722Z,14.78
2023-03-26T11:02:30.213Z,14.68
2023-03-26T11:05:16.548Z,14.57
2023-03-26T11:07:51.272Z,14.80
2023-03-26T11:10:17.979Z,15.17
2023-03-26T11:12:54.779Z,15.39
2023-03-26T11:15:24.624Z,15.47
2023-03-26T11:18:03.677Z,15.55
2023-03-26T11:20:43.509Z,15.72
2023-03-26T11:23:32.557Z,15.68
2023-03-26T11:25:59.421Z,15.58
2023-03-26T11:28:35.991Z,15.76
2023-03-26T11:31:38.485Z,16.02
2023-03-26T11:34:10.680Z,15.97
2023-03-26T11:36:40.563Z,15.83
2023-03-26T11:39:13.204Z,16.07
2023-03-26T11:41:40.010Z,16.25
2023-03-26T11:44:20.738Z,16.37
2023-03-26T11:46:48.747Z,16.27
2023-03-26T11:49:17.145Z,15.97
2023-03-26T11:51:46.982Z,15.29
2023-03-26T11:54:14.651Z,14.95
2023-03-26T11:57:05.266Z,14.69
2023-03-26T11:59:41.937Z,14.59
2023-03-26T12:02:23.758Z,14.56
2023-03-26T12:04:54.730Z,14.56
2023-03-26T12:07:21.613Z,14.65
2023-03-26T12:10:18.331Z,14.54
2023-03-26T12:12:47.025Z,14.70
2023-03-26T12:15:18.594Z,14.93
2023-03-26T12:17:46.507Z,15.13
2023-03-26T12:20:24.344Z,15.22
2023-03-26T12:23:14.099Z,15.02
2023-03-26T12:25:40.858Z,14.82
2023-03-26T12:28:14.073Z,14.63
2023-03-26T12:30:41.809Z,14.45
2023-03-26T12:33:13.744Z,14.21
2023-03-26T12:35:40.914Z,13.88
2023-03-26T12:38:13.956Z,13.64
2023-03-26T12:40:42.639Z,13.48
2023-03-26T12:44:46.165Z,13.28
2023-03-26T12:47:59.419Z,13.05
2023-03-26T12:49:13.484Z,12.90
2023-03-26T12:51:58.019Z,12.76
2023-03-26T12:54:44.222Z,12.61
2023-03-26T12:57:21.889Z,12.59
2023-03-26T12:59:57.839Z,12.64
2023-03-26T13:02:32.161Z,12.80
2023-03-26T13:05:05.546Z,13.03
2023-03-26T13:07:45.261Z,13.27
2023-03-26T13:10:35.603Z,13.27
2023-03-26T13:13:21.213Z,13.22
2023-03-26T13:15:52.701Z,13.30
2023-03-26T13:18:37.051Z,13.56
2023-03-26T13:21:22.292Z,13.78
2023-03-26T13:24:07.742Z,13.91
2023-03-26T13:26:52.830Z,14.01
2023-03-26T13:29:34.795Z,14.27
2023-03-26T13:32:05.353Z,14.44
2023-03-26T13:34:33.000Z,14.42
2023-03-26T13:37:03.825Z,14.35
2023-03-26T13:39:41.206Z,14.31
2023-03-26T13:42:07.970Z,14.32
2023-03-26T13:44:40.891Z,14.45
2023-03-26T13:47:14.857Z,14.61
2023-03-26T13:49:54.878Z,14.76
2023-03-26T13:52:24.635Z,14.73
2023-03-26T13:55:13.315Z,14.75
2023-03-26T13:57:45.977Z,14.79
2023-03-26T14:00:21.303Z,15.18
2023-03-26T14:03:03.906Z,15.98
2023-03-26T14:05:34.888Z,16.81
2023-03-26T14:08:22.176Z,16.97
2023-03-26T14:10:53.434Z,16.09
2023-03-26T14:13:23.373Z,15.56
2023-03-26T14:15:54.749Z,15.04
2023-03-26T14:18:40.288Z,15.09
2023-03-26T14:21:12.727Z,15.05
2023-03-26T14:23:57.243Z,15.01
2023-03-26T14:26:42.960Z,14.73
2023-03-26T14:29:09.740Z,14.36
2023-03-26T14:31:42.823Z,14.15
2023-03-26T14:34:21.826Z,14.29
2023-03-26T14:36:59.142Z,14.13
2023-03-26T14:39:47.614Z,13.93
2023-03-26T14:42:32.569Z,13.78
2023-03-26T14:44:59.284Z,13.65
2023-03-26T14:47:26.360Z,13.54
2023-03-26T14:50:08.429Z,13.40
2023-03-26T14:52:36.529Z,13.26
2023-03-26T14:55:10.446Z,13.41
2023-03-26T14:57:52.836Z,13.73
2023-03-26T15:00:20.375Z,13.98
2023-03-26T15:03:07.508Z,14.19
2023-03-26T15:05:47.308Z,14.34
2023-03-26T15:08:34.454Z,14.45
2023-03-26T15:11:20.408Z,14.56
2023-03-26T15:14:06.078Z,14.59
2023-03-26T15:16:58.642Z,14.53
2023-03-26T15:19:28.449Z,14.02
2023-03-26T15:22:26.408Z,13.59
2023-03-26T15:24:53.252Z,13.21
2023-03-26T15:27:36.705Z,13.00
2023-03-26T15:30:24.393Z,12.83
2023-03-26T15:33:00.269Z,12.63
2023-03-26T15:35:45.645Z,12.53
2023-03-26T15:38:15.473Z,12.43
2023-03-26T15:40:45.069Z,12.38
2023-03-26T15:43:16.226Z,12.48
2023-03-26T15:46:02.313Z,12.63
2023-03-26T15:48:29.630Z,13.00
2023-03-26T15:51:17.816Z,13.39
2023-03-26T15:54:03.541Z,13.78
2023-03-26T15:56:53.748Z,14.09
2023-03-26T15:59:37.666Z,14.32
2023-03-26T16:02:04.513Z,14.46
2023-03-26T16:04:41.217Z,14.47
2023-03-26T16:07:21.270Z,14.38
2023-03-26T16:10:20.333Z,14.13
2023-03-26T16:12:47.140Z,13.90
2023-03-26T16:15:31.640Z,13.65
2023-03-26T16:18:04.760Z,13.59
2023-03-26T16:20:33.933Z,13.48
2023-03-26T16:23:03.973Z,13.30
2023-03-26T16:25:34.947Z,13.16
2023-03-26T16:28:11.052Z,13.05
2023-03-26T16:30:38.556Z,12.85
2023-03-26T16:33:13.432Z,12.70
2023-03-26T16:36:13.609Z,12.52
2023-03-26T16:38:49.836Z,12.28
2023-03-26T16:41:18.586Z,12.09
2023-03-26T16:43:54.771Z,11.91
2023-03-26T16:46:35.999Z,11.75
2023-03-26T16:49:24.099Z,11.61
2023-03-26T16:51:50.952Z,11.47
2023-03-26T16:54:26.866Z,11.36
2023-03-26T16:57:00.688Z,11.27
2023-03-26T16:59:46.348Z,11.17
2023-03-26T17:02:51.927Z,11.05
2023-03-26T17:05:25.216Z,10.92
2023-03-26T17:08:18.756Z,10.77
2023-03-26T17:11:19.211Z,10.57
2023-03-26T17:14:09.017Z,10.46
2023-03-26T17:16:36.029Z,10.36
2023-03-26T17:19:06.088Z,10.26
2023-03-26T17:21:45.881Z,10.17
2023-03-26T17:24:23.901Z,10.06
2023-03-26T17:27:21.515Z,9.94
2023-03-26T17:29:57.471Z,9.83
2023-03-26T17:32:24.834Z,9.68
2023-03-26T17:34:51.612Z,9.52
2023-03-26T17:37:21.088Z,9.35
2023-03-26T17:39:50.661Z,9.23
2023-03-26T17:42:24.514Z,9.11
2023-03-26T17:44:52.679Z,9.01
2023-03-26T17:47:25.946Z,8.88
2023-03-26T17:50:13.370Z,8.74
2023-03-26T17:52:47.749Z,8.61
2023-03-26T17:55:17.557Z,8.51
2023-03-26T17:57:47.385Z,8.41
2023-03-26T18:00:26.387Z,8.29
2023-03-26T18:03:16.492Z,8.18
2023-03-26T18:05:43.574Z,8.05
2023-03-26T18:08:19.511Z,7.95
2023-03-26T18:11:09.372Z,7.86
2023-03-26T18:14:05.744Z,7.76
2023-03-26T18:16:37.030Z,7.68
2023-03-26T18:19:17.167Z,7.61
2023-03-26T18:21:49.643Z,7.52
2023-03-26T18:24:25.158Z,7.44
2023-03-26T18:26:54.913Z,7.38
2023-03-26T18:29:24.810Z,7.31
2023-03-26T18:32:02.337Z,7.24
2023-03-26T18:34:31.378Z,7.18
2023-03-26T18:37:07.973Z,7.15
2023-03-26T18:39:35.123Z,7.10
2023-03-26T18:42:01.968Z,7.07
2023-03-26T18:44:28.811Z,7.04
2023-03-26T18:46:56.633Z,6.99
2023-03-26T18:49:25.423Z,6.94
2023-03-26T18:51:57.225Z,6.90
2023-03-26T18:54:30.285Z,6.87
2023-03-26T18:57:15.247Z,6.83
2023-03-26T18:59:44.797Z,6.79
2023-03-26T19:02:15.868Z,6.76
2023-03-26T19:04:46.082Z,6.74
2023-03-26T19:07:15.538Z,6.71
2023-03-26T19:09:42.947Z,6.69
2023-03-26T19:12:23.491Z,6.66
2023-03-26T19:14:52.983Z,6.63
2023-03-26T19:17:20.663Z,6.60
2023-03-26T19:19:49.027Z,6.60
2023-03-26T19:22:16.306Z,6.60
2023-03-26T19:24:43.400Z,6.61
2023-03-26T19:27:10.870Z,6.60
2023-03-26T19:29:37.695Z,6.59
2023-03-26T19:32:05.937Z,6.60
2023-03-26T19:34:39.492Z,6.61
2023-03-26T19:37:17.405Z,6.63
2023-03-26T19:39:44.228Z,6.65
2023-03-26T19:42:17.025Z,6.67
2023-03-26T19:44:44.246Z,6.70
2023-03-26T19:47:15.892Z,6.74
2023-03-26T19:49:53.736Z,6.78
2023-03-26T19:52:24.929Z,6.83
2023-03-26T19:55:00.124Z,6.88
2023-03-26T19:57:28.771Z,6.93
2023-03-26T19:59:56.064Z,6.97
2023-03-26T20:02:22.926Z,7.00
2023-03-26T20:04:49.971Z,7.02
2023-03-26T20:07:18.351Z,7.04
2023-03-26T20:09:45.688Z,7.05
2023-03-26T20:12:12.928Z,7.08
2023-03-26T20:14:40.386Z,7.10
2023-03-26T20:17:14.168Z,7.12
2023-03-26T20:19:40.994Z,7.15
2023-03-26T20:22:14.922Z,7.18
2023-03-26T20:24:44.288Z,7.20
2023-03-26T20:27:14.390Z,7.22
2023-03-26T20:29:41.763Z,7.23
2023-03-26T20:32:17.364Z,7.25
2023-03-26T20:34:45.173Z,7.25
2023-03-26T20:37:11.900Z,7.26
2023-03-26T20:39:39.176Z,7.26
2023-03-26T20:42:06.772Z,7.25
2023-03-26T20:44:33.686Z,7.25
2023-03-26T20:47:00.774Z,7.24
2023-03-26T20:49:29.157Z,7.25
2023-03-26T20:51:57.015Z,7.27
2023-03-26T20:54:25.118Z,7.29
2023-03-26T20:56:53.022Z,7.30
2023-03-26T20:59:21.580Z,7.31
2023-03-26T21:01:49.612Z,7.31
2023-03-26T21:04:16.966Z,7.31
2023-03-26T21:06:43.860Z,7.28
2023-03-26T21:09:15.373Z,7.24
2023-03-26T21:11:55.161Z,7.19
2023-03-26T21:14:24.157Z,7.18
2023-03-26T21:16:52.064Z,7.16
2023-03-26T21:19:19.762Z,7.13
2023-03-26T21:21:52.577Z,7.10
2023-03-26T21:24:32.628Z,7.06
2023-03-26T21:27:12.127Z,7.03
2023-03-26T21:29:38.996Z,6.98
2023-03-26T21:32:06.049Z,6.94
2023-03-26T21:34:33.539Z,6.90
2023-03-26T21:37:01.101Z,6.85
2023-03-26T21:39:28.578Z,6.80
2023-03-26T21:42:04.797Z,6.75
2023-03-26T21:44:33.036Z,6.70
2023-03-26T21:47:00.328Z,6.65
2023-03-26T21:49:27.691Z,6.60
2023-03-26T21:51:54.632Z,6.54
2023-03-26T21:54:28.991Z,6.49
2023-03-26T21:57:02.015Z,6.44
2023-03-26T21:59:36.203Z,6.41
2023-03-26T22:02:10.398Z,6.37
2023-03-26T22:04:56.877Z,6.32
2023-03-26T22:07:32.576Z,6.25
2023-03-26T22:09:59.473Z,6.19
2023-03-26T22:12:26.255Z,6.14
2023-03-26T22:14:53.029Z,6.10
2023-03-26T22:17:20.127Z,6.05
2023-03-26T22:19:46.950Z,6.01
2023-03-26T22:22:14.393Z,5.96
2023-03-26T22:24:41.740Z,5.92
2023-03-26T22:27:08.572Z,5.88
2023-03-26T22:29:35.908Z,5.85
2023-03-26T22:32:03.264Z,5.83
2023-03-26T22:34:31.170Z,5.80
2023-03-26T22:36:58.031Z,5.79
2023-03-26T22:39:25.410Z,5.77
2023-03-26T22:41:52.366Z,5.74
2023-03-26T22:44:20.567Z,5.72
2023-03-26T22:46:50.575Z,5.67
2023-03-26T22:49:17.626Z,5.63
2023-03-26T22:51:44.683Z,5.54
2023-03-26T22:54:11.733Z,5.45
2023-03-26T22:56:38.727Z,5.35
2023-03-26T22:59:05.614Z,5.25
2023-03-26T23:01:32.574Z,5.16
2023-03-26T23:03:59.520Z,5.08
2023-03-26T23:06:26.512Z,5.01
2023-03-26T23:08:55.407Z,4.94
2023-03-26T23:11:22.703Z,4.88
2023-03-26T23:13:49.837Z,4.84
2023-03-26T23:16:17.045Z,4.80
2023-03-26T23:18:44.707Z,4.77
2023-03-26T23:21:16.067Z,4.73
2023-03-26T23:23:43.253Z,4.71
2023-03-26T23:26:10.389Z,4.68
2023-03-26T23:28:37.844Z,4.64
2023-03-26T23:31:06.084Z,4.59
2023-03-26T23:33:34.843Z,4.52
2023-03-26T23:36:03.672Z,4.44
2023-03-26T23:38:44.228Z,4.36
2023-03-26T23:41:15.543Z,4.29
2023-03-26T23:43:53.981Z,4.23
2023-03-26T23:46:23.968Z,4.17
2023-03-26T23:48:51.375Z,4.11
2023-03-26T23:51:21.823Z,4.04
2023-03-26T23:53:48.785Z,4.00
2023-03-26T23:56:15.762Z,3.95
2023-03-26T23:58:42.821Z,3.92
